Time;durP1;ratioP1;P1;durP2;ratioP2;P2;SDS_P1;SDS_P2;PMS_P1;PMS_P2;Temp;Humidity;BMP_temperature;BMP_pressure;BME280_temperature;BME280_humidity;BME280_pressure;Samples;Min_cycle;Max_cycle;Signal;HPM_P1;HPM_P2
2022/01/15 00:02:25;;;;;;;11.17;8.80;;;;;;;-1.49;100.00;97591.69;5019353;27;104842;-60
2022/01/15 00:04:52;;;;;;;12.43;9.27;;;;;;;-1.41;100.00;97602.19;5033234;27;101929;-61
2022/01/15 00:07:21;;;;;;;12.80;9.37;;;;;;;-1.36;100.00;97599.97;5029930;28;105262;-61
2022/01/15 00:09:50;;;;;;;11.40;9.00;;;;;;;-1.60;100.00;97603.13;5022361;27;105764;-61
2022/01/15 00:12:17;;;;;;;11.13;8.57;;;;;;;-1.45;100.00;97599.06;5029501;28;101918;-61
2022/01/15 00:14:45;;;;;;;13.20;9.33;;;;;;;-1.44;100.00;97592.03;5045976;27;105154;-61
2022/01/15 00:17:19;;;;;;;11.10;8.67;;;;;;;-1.46;100.00;97596.59;5031425;27;105610;-61
2022/01/15 00:19:46;;;;;;;11.73;8.90;;;;;;;-1.58;100.00;97600.38;5033735;27;101910;-60
2022/01/15 00:22:15;;;;;;;11.23;9.23;;;;;;;-1.69;100.00;97590.97;5051358;27;102626;-61
2022/01/15 00:24:44;;;;;;;12.87;8.80;;;;;;;-1.75;100.00;97594.16;5035496;27;101898;-61
2022/01/15 00:27:11;;;;;;;11.97;9.07;;;;;;;-1.76;100.00;97583.88;5033188;27;105388;-61
2022/01/15 00:29:38;;;;;;;12.53;9.27;;;;;;;-1.80;100.00;97585.94;5032523;27;105243;-61
2022/01/15 00:32:08;;;;;;;10.60;8.57;;;;;;;-1.88;100.00;97585.03;5032795;27;102026;-61
2022/01/15 00:34:36;;;;;;;13.73;9.77;;;;;;;-1.97;100.00;97583.31;5029754;28;105769;-60
2022/01/15 00:37:04;;;;;;;16.53;9.17;;;;;;;-1.97;100.00;97588.50;5046425;27;104744;-61
2022/01/15 00:39:45;;;;;;;13.07;9.30;;;;;;;-1.95;100.00;97597.00;5031697;27;102295;-61
2022/01/15 00:42:14;;;;;;;13.97;9.17;;;;;;;-1.89;100.00;97594.66;5033104;27;105450;-61
2022/01/15 00:44:42;;;;;;;13.83;9.00;;;;;;;-1.86;100.00;97589.13;5032284;28;105958;-61
2022/01/15 00:47:09;;;;;;;13.47;8.77;;;;;;;-1.74;100.00;97580.16;5042344;27;103533;-61
2022/01/15 00:49:36;;;;;;;10.97;8.53;;;;;;;-1.75;100.00;97588.13;5064388;27;105777;-61
2022/01/15 00:52:04;;;;;;;11.90;9.03;;;;;;;-1.97;100.00;97584.09;5032853;27;101960;-61
2022/01/15 00:54:31;;;;;;;13.03;8.80;;;;;;;-1.85;100.00;97588.19;5031963;27;104137;-61
2022/01/15 00:56:59;;;;;;;14.37;9.00;;;;;;;-1.81;100.00;97583.50;5050358;27;102482;-61
2022/01/15 00:59:31;;;;;;;12.63;9.10;;;;;;;-1.87;100.00;97579.66;5029149;28;102039;-61
2022/01/15 01:01:58;;;;;;;12.50;8.90;;;;;;;-2.02;100.00;97582.91;5012781;28;104779;-61
2022/01/15 01:04:25;;;;;;;11.80;8.27;;;;;;;-1.97;100.00;97578.88;5024385;28;104167;-61
2022/01/15 01:06:53;;;;;;;13.87;8.73;;;;;;;-2.08;100.00;97584.28;5032257;28;102104;-61
2022/01/15 01:10:05;;;;;;;10.70;8.50;;;;;;;-1.98;100.00;97576.44;5016932;27;105637;-61
2022/01/15 01:13:07;;;;;;;11.60;8.10;;;;;;;-2.02;100.00;97581.09;5048279;27;101873;-60
2022/01/15 01:21:47;;;;;;;12.70;8.37;;;;;;;-2.19;100.00;97591.47;5032348;27;101816;-61
2022/01/15 01:24:09;;;;;;;11.17;8.40;;;;;;;-2.24;100.00;97586.69;5032097;27;105476;-61
2022/01/15 01:26:43;;;;;;;11.40;7.87;;;;;;;-2.11;100.00;97575.94;5031755;27;105847;-61
2022/01/15 01:29:48;;;;;;;10.40;8.17;;;;;;;-1.98;100.00;97577.25;5029602;27;103671;-61
2022/01/15 01:32:32;;;;;;;10.73;8.03;;;;;;;-1.83;100.00;97581.03;5034710;27;104913;-60
2022/01/15 01:35:06;;;;;;;11.53;8.50;;;;;;;-1.79;100.00;97576.34;5019092;28;102415;-61
2022/01/15 01:37:40;;;;;;;10.10;7.97;;;;;;;-1.88;100.00;97572.00;5014563;27;104059;-61
2022/01/15 01:40:18;;;;;;;11.63;8.27;;;;;;;-1.78;100.00;97577.97;5049909;27;102788;-60
2022/01/15 01:42:59;;;;;;;10.27;8.37;;;;;;;-1.83;100.00;97574.97;5031870;27;101825;-60
2022/01/15 01:45:28;;;;;;;9.67;7.70;;;;;;;-2.18;100.00;97572.28;5031806;27;104905;-61
2022/01/15 01:48:24;;;;;;;10.53;7.80;;;;;;;-2.11;100.00;97566.34;5049179;27;103047;-61
2022/01/15 01:50:50;;;;;;;9.60;7.60;;;;;;;-2.27;100.00;97573.13;5045639;27;101831;-61
2022/01/15 01:53:17;;;;;;;9.03;7.47;;;;;;;-2.23;100.00;97570.09;5012396;27;104926;-61
2022/01/15 01:55:44;;;;;;;11.67;7.87;;;;;;;-2.13;100.00;97563.06;5033482;27;105400;-61
2022/01/15 01:58:16;;;;;;;10.23;8.17;;;;;;;-2.04;100.00;97561.38;5028395;28;105219;-61
2022/01/15 02:00:44;;;;;;;11.30;8.00;;;;;;;-2.29;100.00;97560.22;5028731;27;106297;-61
2022/01/15 02:03:12;;;;;;;11.30;8.00;;;;;;;-2.19;100.00;97566.22;5031842;27;101981;-61
2022/01/15 02:05:40;;;;;;;10.33;8.37;;;;;;;-2.13;100.00;97557.84;5028025;28;103625;-61
2022/01/15 02:11:29;;;;;;;13.33;8.80;;;;;;;-2.12;100.00;97553.47;5031145;27;101844;-60
2022/01/15 02:13:56;;;;;;;9.83;7.83;;;;;;;-2.29;100.00;97557.63;5031368;27;104804;-61
2022/01/15 02:16:25;;;;;;;11.00;8.10;;;;;;;-2.28;100.00;97546.25;5030705;27;105719;-61
2022/01/15 02:18:53;;;;;;;9.90;8.10;;;;;;;-2.35;100.00;97539.16;5033724;27;102061;-61
2022/01/15 02:24:06;;;;;;;11.13;8.37;;;;;;;-2.33;100.00;97534.63;5034746;27;101866;-61
2022/01/15 02:26:37;;;;;;;10.53;8.10;;;;;;;-2.54;100.00;97532.22;5034782;27;105566;-61
2022/01/15 02:29:12;;;;;;;10.03;8.17;;;;;;;-2.57;100.00;97532.50;5049417;27;102744;-61
2022/01/15 02:31:39;;;;;;;9.03;7.50;;;;;;;-2.65;100.00;97529.78;5053450;27;101861;-61
2022/01/15 02:34:07;;;;;;;10.37;7.63;;;;;;;-2.64;100.00;97534.03;5034591;27;105275;-61
2022/01/15 02:36:38;;;;;;;11.67;8.43;;;;;;;-2.71;100.00;97527.75;5034522;27;103992;-61
2022/01/15 02:39:16;;;;;;;10.27;8.27;;;;;;;-2.60;100.00;97537.19;5021183;27;101906;-61
2022/01/15 02:42:30;;;;;;;13.80;8.23;;;;;;;-2.61;100.00;97520.75;5030749;28;105232;-61
2022/01/15 02:45:01;;;;;;;12.47;9.10;;;;;;;-2.50;100.00;97517.16;5031819;27;103690;-61
2022/01/15 02:50:13;;;;;;;12.67;8.97;;;;;;;-2.43;100.00;97513.81;5033693;27;105715;-61
2022/01/15 02:52:41;;;;;;;11.60;8.03;;;;;;;-2.59;100.00;97508.41;5031015;28;101958;-61
2022/01/15 02:55:09;;;;;;;11.40;8.50;;;;;;;-2.78;100.00;97508.44;5024239;28;105808;-61
2022/01/15 02:57:44;;;;;;;11.33;8.47;;;;;;;-2.64;100.00;97501.97;5021280;27;102735;-61
2022/01/15 03:00:12;;;;;;;10.37;8.23;;;;;;;-2.63;100.00;97491.41;5033471;27;103234;-61
2022/01/15 03:02:39;;;;;;;11.70;8.43;;;;;;;-2.70;100.00;97492.13;5055973;27;102812;-61
2022/01/15 03:05:07;;;;;;;11.00;8.20;;;;;;;-2.76;100.00;97493.53;5031086;27;101940;-61
2022/01/15 03:07:36;;;;;;;11.67;8.50;;;;;;;-2.82;100.00;97494.09;5021532;27;105673;-61
2022/01/15 03:10:08;;;;;;;13.33;9.00;;;;;;;-2.77;100.00;97496.25;5030145;28;105074;-61
2022/01/15 03:12:35;;;;;;;13.40;8.07;;;;;;;-2.85;100.00;97491.75;5020713;27;101868;-61
2022/01/15 03:15:04;;;;;;;10.10;7.80;;;;;;;-2.80;100.00;97481.75;5052285;27;102365;-61
2022/01/15 03:17:48;;;;;;;12.23;8.50;;;;;;;-2.82;100.00;97481.09;5033344;27;105036;-61
2022/01/15 03:20:18;;;;;;;9.37;8.17;;;;;;;-2.75;100.00;97476.09;5030770;28;102015;-60
2022/01/15 03:22:45;;;;;;;10.47;8.30;;;;;;;-2.66;100.00;97481.31;5047782;27;102731;-60
2022/01/15 03:25:14;;;;;;;10.93;8.93;;;;;;;-2.63;100.00;97480.19;5036393;27;103868;-60
2022/01/15 03:27:41;;;;;;;9.87;7.73;;;;;;;-2.63;100.00;97470.59;5034061;27;104799;-61
2022/01/15 03:30:10;;;;;;;10.17;8.50;;;;;;;-2.80;100.00;97473.94;5029727;28;105406;-61
2022/01/15 03:32:42;;;;;;;9.97;8.43;;;;;;;-2.78;100.00;97466.78;5016088;27;102029;-61
2022/01/15 03:35:11;;;;;;;10.87;8.00;;;;;;;-2.77;100.00;97468.47;5048113;27;106941;-61
2022/01/15 03:37:38;;;;;;;10.80;8.30;;;;;;;-2.72;100.00;97463.66;5029826;28;105026;-61
2022/01/15 03:40:07;;;;;;;11.90;8.60;;;;;;;-2.64;100.00;97461.16;5026424;27;101822;-61
2022/01/15 03:42:36;;;;;;;10.97;8.57;;;;;;;-2.67;100.00;97464.03;5052185;27;102616;-60
2022/01/15 03:45:04;;;;;;;10.60;8.27;;;;;;;-2.66;100.00;97462.25;5032540;27;105542;-61
2022/01/15 03:47:40;;;;;;;10.60;7.57;;;;;;;-2.80;100.00;97457.53;5055786;27;101794;-61
2022/01/15 03:50:08;;;;;;;10.33;8.07;;;;;;;-3.12;100.00;97463.06;5056246;27;105303;-61
2022/01/15 03:52:35;;;;;;;10.17;7.77;;;;;;;-3.08;100.00;97450.59;5047817;27;102308;-61
2022/01/15 03:55:04;;;;;;;9.40;7.37;;;;;;;-3.10;100.00;97458.56;5028439;27;103970;-61
2022/01/15 03:58:15;;;;;;;11.17;8.10;;;;;;;-3.03;100.00;97457.03;5013104;28;105042;-61
2022/01/15 04:00:43;;;;;;;10.20;8.37;;;;;;;-3.00;100.00;97456.72;5047057;27;101844;-61
2022/01/15 04:03:10;;;;;;;10.00;8.07;;;;;;;-3.12;100.00;97450.06;5013618;28;105243;-60
2022/01/15 04:05:37;;;;;;;11.03;7.63;;;;;;;-3.20;100.00;97452.56;5031124;27;104416;-61
2022/01/15 04:08:07;;;;;;;11.73;8.13;;;;;;;-2.99;100.00;97449.75;5030237;28;101912;-61
2022/01/15 04:10:35;;;;;;;11.00;7.67;;;;;;;-3.03;100.00;97451.81;5024939;28;105753;-61
2022/01/15 04:13:02;;;;;;;9.87;7.67;;;;;;;-2.99;100.00;97447.97;5020304;27;102015;-61
2022/01/15 04:15:29;;;;;;;9.73;7.97;;;;;;;-2.97;100.00;97450.41;5032911;27;105571;-61
2022/01/15 04:18:09;;;;;;;10.47;7.90;;;;;;;-2.90;100.00;97447.13;5032477;27;105710;-61
2022/01/15 04:20:37;;;;;;;9.67;7.70;;;;;;;-3.17;100.00;97451.44;5051809;27;101741;-61
2022/01/15 04:23:04;;;;;;;9.93;7.57;;;;;;;-3.12;100.00;97452.66;5033254;27;102939;-61
2022/01/15 04:25:31;;;;;;;9.90;6.90;;;;;;;-3.16;100.00;97451.28;5032022;27;106879;-61
2022/01/15 04:28:09;;;;;;;10.10;7.17;;;;;;;-3.28;100.00;97449.00;5033050;27;101973;-61
2022/01/15 04:30:36;;;;;;;10.33;7.47;;;;;;;-3.26;100.00;97453.09;5033221;27;105057;-61
2022/01/15 04:33:03;;;;;;;10.37;7.77;;;;;;;-3.31;100.00;97465.72;5035034;27;105045;-61
2022/01/15 04:35:31;;;;;;;9.00;6.90;;;;;;;-3.37;100.00;97463.66;5032459;27;105152;-61
2022/01/15 04:38:32;;;;;;;11.03;7.37;;;;;;;-3.38;100.00;97467.19;5032514;27;105147;-60
2022/01/15 04:41:01;;;;;;;9.00;7.43;;;;;;;-3.26;100.00;97468.72;5013120;28;101898;-61
2022/01/15 04:43:28;;;;;;;9.40;7.03;;;;;;;-3.31;100.00;97476.09;5029706;28;105137;-61
2022/01/15 04:45:55;;;;;;;8.90;7.47;;;;;;;-3.30;100.00;97475.16;5031627;27;105313;-61
2022/01/15 04:48:29;;;;;;;8.80;7.47;;;;;;;-3.17;100.00;97470.47;5033109;27;101863;-60
2022/01/15 04:50:58;;;;;;;10.17;7.87;;;;;;;-3.09;100.00;97468.00;5029622;28;105161;-61
2022/01/15 04:53:25;;;;;;;9.57;7.63;;;;;;;-3.27;100.00;97474.84;5033827;28;102856;-61
2022/01/15 04:55:52;;;;;;;9.27;7.60;;;;;;;-3.30;100.00;97469.94;5028700;28;103551;-61
2022/01/15 04:58:27;;;;;;;10.87;7.77;;;;;;;-3.33;100.00;97464.19;5020770;27;104367;-61
2022/01/15 05:00:54;;;;;;;10.90;7.50;;;;;;;-3.28;100.00;97469.81;5049738;27;101805;-61
2022/01/15 05:03:21;;;;;;;10.03;7.47;;;;;;;-3.21;100.00;97463.91;5051233;27;101656;-60
2022/01/15 05:05:48;;;;;;;7.80;6.97;;;;;;;-3.11;100.00;97464.69;5027864;28;105566;-60
2022/01/15 05:08:16;;;;;;;10.40;8.17;;;;;;;-3.02;100.00;97458.66;5037683;27;101876;-61
2022/01/15 05:10:46;;;;;;;9.47;7.50;;;;;;;-2.93;100.00;97473.44;5032122;27;105603;-61
2022/01/15 05:13:15;;;;;;;10.70;7.57;;;;;;;-3.05;100.00;97474.56;5050216;27;102876;-61
2022/01/15 05:15:43;;;;;;;8.90;7.37;;;;;;;-3.23;100.00;97471.03;5035073;27;101857;-61
2022/01/15 05:18:13;;;;;;;8.40;6.70;;;;;;;-3.39;100.00;97472.56;5031660;27;103740;-61
2022/01/15 05:20:44;;;;;;;11.20;7.70;;;;;;;-3.26;100.00;97465.28;5028965;28;101791;-61
2022/01/15 05:23:10;;;;;;;9.93;7.33;;;;;;;-3.20;100.00;97470.75;5031769;27;105574;-61
2022/01/15 05:25:40;;;;;;;9.43;7.23;;;;;;;-3.23;100.00;97459.81;5049612;27;103169;-61
2022/01/15 05:28:18;;;;;;;9.07;7.37;;;;;;;-3.55;100.00;97467.91;5031938;27;101929;-61
2022/01/15 05:30:45;;;;;;;10.83;7.73;;;;;;;-3.49;100.00;97463.94;5028321;27;104133;-61
2022/01/15 05:33:12;;;;;;;11.17;7.60;;;;;;;-3.60;100.00;97457.09;5031217;27;105256;-61
2022/01/15 05:35:39;;;;;;;8.33;7.07;;;;;;;-3.57;100.00;97458.59;5031914;27;101979;-61
2022/01/15 05:38:15;;;;;;;9.00;7.47;;;;;;;-3.63;100.00;97466.94;5035072;27;105136;-61
2022/01/15 05:41:13;;;;;;;8.30;7.13;;;;;;;-3.62;100.00;97459.00;5031945;27;104010;-60
2022/01/15 05:43:40;;;;;;;9.70;7.47;;;;;;;-3.58;100.00;97462.16;5029673;27;106458;-60
2022/01/15 05:46:07;;;;;;;11.23;8.13;;;;;;;-3.73;100.00;97460.91;5027428;28;105134;-61
2022/01/15 05:48:49;;;;;;;9.27;7.13;;;;;;;-3.68;100.00;97454.38;5013049;27;101852;-61
2022/01/15 05:51:16;;;;;;;10.00;7.37;;;;;;;-3.65;100.00;97459.28;5045799;27;105041;-61
2022/01/15 05:53:43;;;;;;;11.17;7.63;;;;;;;-3.87;100.00;97454.34;5013517;27;105380;-61
2022/01/15 05:56:10;;;;;;;10.50;7.43;;;;;;;-3.73;100.00;97459.16;5031666;27;102193;-61
2022/01/15 05:58:50;;;;;;;8.67;7.17;;;;;;;-3.64;100.00;97460.09;5034139;27;106436;-61
2022/01/15 06:01:17;;;;;;;9.53;7.60;;;;;;;-3.55;100.00;97454.09;5056505;27;103014;-61
2022/01/15 06:03:44;;;;;;;10.27;8.03;;;;;;;-3.56;100.00;97462.88;5034986;27;105086;-61
2022/01/15 06:06:11;;;;;;;11.57;7.60;;;;;;;-3.58;100.00;97455.19;5034910;27;105715;-61
2022/01/15 06:08:43;;;;;;;10.03;7.97;;;;;;;-3.54;100.00;97453.97;5033230;27;102453;-61
2022/01/15 06:11:11;;;;;;;9.33;8.03;;;;;;;-3.48;100.00;97466.41;5034834;27;105609;-61
2022/01/15 06:13:39;;;;;;;10.37;7.70;;;;;;;-3.50;100.00;97463.09;5052667;27;102699;-61
2022/01/15 06:16:07;;;;;;;12.03;8.53;;;;;;;-3.64;100.00;97465.31;5035421;27;101938;-61
2022/01/15 06:18:36;;;;;;;16.33;8.83;;;;;;;-3.62;100.00;97466.81;5034961;27;105073;-61
2022/01/15 06:21:03;;;;;;;9.53;7.77;;;;;;;-3.66;100.00;97460.25;5052970;27;102537;-61
2022/01/15 06:23:30;;;;;;;9.40;7.93;;;;;;;-3.56;100.00;97463.66;5038601;27;101916;-61
2022/01/15 06:25:57;;;;;;;10.43;7.73;;;;;;;-3.51;100.00;97471.03;5033570;27;105823;-61
2022/01/15 06:28:34;;;;;;;16.33;11.63;;;;;;;-3.37;100.00;97461.06;5035256;27;101875;-61
2022/01/15 06:31:01;;;;;;;11.97;9.03;;;;;;;-3.19;100.00;97469.78;5033896;27;104046;-61
2022/01/15 06:33:30;;;;;;;12.07;8.20;;;;;;;-3.23;100.00;97476.22;5030755;27;105698;-61
2022/01/15 06:35:57;;;;;;;11.03;8.30;;;;;;;-3.30;100.00;97477.75;5035267;27;101855;-61
2022/01/15 06:38:25;;;;;;;9.37;7.63;;;;;;;-3.45;100.00;97481.72;5053297;27;102683;-61
2022/01/15 06:40:52;;;;;;;10.40;7.93;;;;;;;-3.49;100.00;97475.13;5034243;27;104081;-60
2022/01/15 06:43:19;;;;;;;9.83;7.97;;;;;;;-3.54;100.00;97485.16;5031282;28;102209;-60
2022/01/15 06:45:46;;;;;;;10.83;7.80;;;;;;;-3.71;100.00;97478.00;5033358;28;105674;-60
2022/01/15 06:48:28;;;;;;;10.20;7.87;;;;;;;-3.76;100.00;97474.19;5024475;27;102061;-60
2022/01/15 06:50:57;;;;;;;9.40;7.40;;;;;;;-3.69;100.00;97486.53;5034680;27;103666;-60
2022/01/15 06:53:25;;;;;;;10.00;7.40;;;;;;;-3.81;100.00;97484.19;5034207;27;105705;-60
2022/01/15 06:55:52;;;;;;;9.43;7.23;;;;;;;-3.80;100.00;97483.22;5034243;27;102019;-60
2022/01/15 06:59:02;;;;;;;11.63;8.53;;;;;;;-3.71;100.00;97483.22;5031223;28;104044;-60
2022/01/15 07:01:29;;;;;;;10.50;7.70;;;;;;;-3.60;100.00;97483.09;5017415;27;105523;-60
2022/01/15 07:03:56;;;;;;;10.97;7.83;;;;;;;-3.48;100.00;97492.41;5030765;28;102158;-60
2022/01/15 07:06:25;;;;;;;9.37;7.80;;;;;;;-3.55;100.00;97487.88;5017356;28;105505;-60
2022/01/15 07:08:53;;;;;;;8.67;7.43;;;;;;;-3.60;100.00;97488.28;5013308;28;101940;-60
2022/01/15 07:11:20;;;;;;;13.83;9.90;;;;;;;-3.43;100.00;97495.41;5014008;28;105124;-60
2022/01/15 07:13:48;;;;;;;16.70;11.27;;;;;;;-3.36;100.00;97493.91;5013678;28;105262;-60
2022/01/15 07:16:14;;;;;;;13.63;10.60;;;;;;;-3.49;100.00;97490.75;5025653;27;101926;-60
2022/01/15 07:18:46;;;;;;;13.67;9.40;;;;;;;-3.44;100.00;97498.94;5033366;27;103745;-60
2022/01/15 07:21:13;;;;;;;11.20;8.70;;;;;;;-3.29;100.00;97500.19;5030441;28;105296;-60
2022/01/15 07:23:42;;;;;;;13.97;9.80;;;;;;;-3.22;100.00;97506.47;5015863;27;102013;-60
2022/01/15 07:26:10;;;;;;;12.37;9.50;;;;;;;-3.08;100.00;97500.84;5052605;27;102535;-60
2022/01/15 07:28:38;;;;;;;14.63;10.40;;;;;;;-3.01;100.00;97501.13;5037022;27;105401;-60
2022/01/15 07:31:05;;;;;;;12.17;9.90;;;;;;;-2.99;100.00;97505.22;5029493;28;105434;-60
2022/01/15 07:33:32;;;;;;;20.30;12.73;;;;;;;-2.92;100.00;97506.31;5013315;28;104085;-60
2022/01/15 07:35:59;;;;;;;26.53;13.57;;;;;;;-2.89;100.00;97506.00;5012930;28;101924;-60
2022/01/15 07:38:59;;;;;;;31.30;17.30;;;;;;;-3.00;100.00;97506.16;5013060;28;105058;-60
2022/01/15 07:41:56;;;;;;;120.17;40.37;;;;;;;-2.56;100.00;97509.91;5019144;27;106524;-60
2022/01/15 07:44:23;;;;;;;54.03;23.07;;;;;;;-2.44;100.00;97506.16;5012711;28;101788;-60
2022/01/15 07:46:50;;;;;;;58.60;28.10;;;;;;;-2.48;100.00;97500.41;5012904;28;105547;-60
2022/01/15 07:49:21;;;;;;;87.03;36.37;;;;;;;-2.42;100.00;97512.84;5030991;27;105375;-60
2022/01/15 07:51:49;;;;;;;49.97;24.13;;;;;;;-2.38;100.00;97505.56;5054778;27;101868;-60
2022/01/15 07:54:17;;;;;;;28.77;15.57;;;;;;;-2.53;100.00;97512.19;5032272;27;104971;-60
2022/01/15 07:56:44;;;;;;;26.40;12.20;;;;;;;-2.64;100.00;97500.19;5032898;27;101968;-60
2022/01/15 07:59:15;;;;;;;21.70;12.87;;;;;;;-2.65;100.00;97498.56;5032367;27;105470;-60
2022/01/15 08:01:41;;;;;;;22.53;12.80;;;;;;;-2.56;100.00;97500.31;5050970;27;102569;-60
2022/01/15 08:04:08;;;;;;;19.23;13.33;;;;;;;-2.59;100.00;97503.19;5032474;27;101981;-60
2022/01/15 08:06:35;;;;;;;21.23;13.67;;;;;;;-2.63;100.00;97491.41;5032321;27;104907;-60
2022/01/15 08:09:10;;;;;;;19.03;13.53;;;;;;;-2.50;100.00;97491.09;5027619;28;104637;-60
2022/01/15 08:11:39;;;;;;;20.50;13.33;;;;;;;-2.49;100.00;97487.53;4999797;28;101903;-60
2022/01/15 08:14:06;;;;;;;19.83;12.90;;;;;;;-2.36;100.00;97485.44;4993077;28;104872;-60
2022/01/15 08:16:33;;;;;;;20.03;13.57;;;;;;;-2.25;100.00;97480.84;5004772;28;101961;-60
2022/01/15 08:19:03;;;;;;;24.33;15.37;;;;;;;-2.41;100.00;97485.03;5008857;28;105210;-60
2022/01/15 08:21:30;;;;;;;26.77;15.03;;;;;;;-2.33;100.00;97477.31;5008020;28;105450;-60
2022/01/15 08:23:57;;;;;;;22.67;14.97;;;;;;;-2.41;100.00;97465.00;5008959;28;102019;-60
2022/01/15 08:26:24;;;;;;;25.90;16.40;;;;;;;-2.41;100.00;97467.63;5008319;28;105273;-60
2022/01/15 08:29:01;;;;;;;20.23;14.83;;;;;;;-2.38;100.00;97469.09;5009685;28;102753;-60
2022/01/15 08:31:28;;;;;;;21.67;15.17;;;;;;;-2.34;100.00;97471.31;5002426;28;101961;-60
2022/01/15 08:33:55;;;;;;;21.33;14.07;;;;;;;-2.11;100.00;97475.16;5005125;28;105300;-60
2022/01/15 08:36:22;;;;;;;23.63;15.93;;;;;;;-2.25;100.00;97465.22;5009943;28;104797;-60
2022/01/15 08:39:43;;;;;;;22.23;16.43;;;;;;;-2.09;100.00;97468.00;5006918;28;105762;-60
2022/01/15 08:42:29;;;;;;;23.03;15.83;;;;;;;-2.10;100.00;97462.94;5003616;28;105923;-60
2022/01/15 08:44:58;;;;;;;27.77;16.63;;;;;;;-2.02;100.00;97458.63;4998724;28;102412;-60
2022/01/15 08:47:45;;;;;;;31.03;17.90;;;;;;;-1.87;100.00;97454.56;5008469;28;103702;-60
2022/01/15 08:50:13;;;;;;;31.40;17.63;;;;;;;-1.85;100.00;97452.63;5004097;28;105767;-60
2022/01/15 08:52:41;;;;;;;38.33;19.20;;;;;;;-1.83;100.00;97445.47;4988526;28;101891;-60
2022/01/15 08:55:12;;;;;;;32.13;18.53;;;;;;;-1.61;100.00;97445.03;4988613;28;103662;-60
2022/01/15 08:57:49;;;;;;;39.17;20.20;;;;;;;-1.75;100.00;97447.34;4987969;28;103830;-60
2022/01/15 09:00:19;;;;;;;34.37;19.37;;;;;;;-1.58;100.00;97439.50;4993146;28;101848;-60
2022/01/15 09:02:47;;;;;;;55.60;22.03;;;;;;;-1.62;100.00;97446.00;4993799;28;104215;-60
2022/01/15 09:05:14;;;;;;;87.73;23.23;;;;;;;-1.61;100.00;97444.19;5004301;28;103551;-60
2022/01/15 09:07:56;;;;;;;44.20;22.17;;;;;;;-1.55;100.00;97438.38;4993532;28;106268;-60
2022/01/15 09:10:22;;;;;;;41.90;22.73;;;;;;;-1.60;100.00;97430.22;5003831;28;102761;-60
2022/01/15 09:12:49;;;;;;;50.77;23.33;;;;;;;-1.49;100.00;97428.19;5007757;28;101975;-60
2022/01/15 09:15:18;;;;;;;35.03;21.53;;;;;;;-1.34;100.00;97425.84;5007427;28;104854;-60
2022/01/15 09:17:55;;;;;;;35.33;21.53;;;;;;;-1.15;100.00;97421.25;5007017;28;105395;-60
2022/01/15 09:20:23;;;;;;;35.63;22.93;;;;;;;-0.93;100.00;97420.75;5012252;28;102025;-60
2022/01/15 09:22:49;;;;;;;41.50;22.90;;;;;;;-0.88;100.00;97426.31;5007178;28;106679;-60
2022/01/15 09:25:17;;;;;;;34.57;22.47;;;;;;;-0.61;100.00;97431.34;5004546;28;102038;-60
2022/01/15 09:30:36;;;;;;;38.80;23.57;;;;;;;-0.57;100.00;97419.63;5002717;28;105653;-60
2022/01/15 09:33:03;;;;;;;38.57;21.70;;;;;;;-0.57;100.00;97416.19;5007340;28;102015;-60
2022/01/15 09:35:32;;;;;;;44.63;21.47;;;;;;;-0.43;100.00;97424.28;5007628;28;105553;-60
2022/01/15 09:38:28;;;;;;;30.77;21.33;;;;;;;-0.58;100.00;97418.00;5007398;28;105821;-60
2022/01/15 09:40:56;;;;;;;44.63;22.27;;;;;;;-0.62;100.00;97421.09;5004556;28;102006;-60
2022/01/15 09:43:23;;;;;;;42.70;21.07;;;;;;;-0.73;100.00;97416.94;5007117;28;104069;-60
2022/01/15 09:45:53;;;;;;;81.13;23.57;;;;;;;-0.98;100.00;97415.19;5005251;28;102582;-60
2022/01/15 09:48:27;;;;;;;51.50;22.30;;;;;;;-1.09;100.00;97422.44;4992814;28;105611;-60
2022/01/15 09:50:54;;;;;;;59.57;21.30;;;;;;;-1.16;100.00;97424.03;4996419;28;102781;-60
2022/01/15 09:53:21;;;;;;;34.63;22.40;;;;;;;-1.02;100.00;97428.69;5007478;28;101979;-60
2022/01/15 09:55:48;;;;;;;34.80;21.93;;;;;;;-0.88;100.00;97423.72;5007281;28;105380;-60
2022/01/15 09:58:32;;;;;;;37.83;23.70;;;;;;;-0.86;100.00;97421.78;5003769;28;105340;-60
2022/01/15 10:01:01;;;;;;;34.47;22.27;;;;;;;-1.01;100.00;97423.31;4997883;28;102418;-60
2022/01/15 10:03:28;;;;;;;33.57;21.93;;;;;;;-0.99;100.00;97423.97;5008695;28;102289;-61
2022/01/15 10:05:55;;;;;;;32.77;21.47;;;;;;;-0.80;100.00;97421.16;5007060;28;105788;-60
2022/01/15 10:08:25;;;;;;;34.47;21.67;;;;;;;-0.87;100.00;97417.53;4991911;28;105516;-60
2022/01/15 10:10:55;;;;;;;32.80;21.40;;;;;;;-0.87;100.00;97414.94;5009927;28;102576;-60
2022/01/15 10:13:24;;;;;;;35.63;22.13;;;;;;;-0.85;100.00;97412.97;5008484;28;101935;-61
2022/01/15 10:16:13;;;;;;;38.20;21.70;;;;;;;-0.99;100.00;97417.94;5007916;28;102603;-61
2022/01/15 10:18:44;;;;;;;31.90;21.93;;;;;;;-0.93;100.00;97407.69;5008630;28;101702;-60
2022/01/15 10:21:14;;;;;;;30.03;20.60;;;;;;;-0.56;100.00;97407.41;5008919;28;102241;-60
2022/01/15 10:23:50;;;;;;;34.73;22.60;;;;;;;-0.38;100.00;97414.97;5008231;28;104501;-60
2022/01/15 10:26:20;;;;;;;37.20;23.30;;;;;;;-0.12;100.00;97418.34;5003243;28;105080;-66
2022/01/15 10:29:03;;;;;;;32.40;22.73;;;;;;;-0.13;100.00;97420.31;5005252;28;102018;-61
2022/01/15 10:31:35;;;;;;;30.93;21.83;;;;;;;-0.19;100.00;97406.06;5003246;28;105034;-62
2022/01/15 10:34:27;;;;;;;28.80;21.17;;;;;;;-0.01;100.00;97399.72;5006389;28;102333;-62
2022/01/15 10:37:06;;;;;;;28.43;20.00;;;;;;;0.00;100.00;97400.56;5007089;28;105319;-62
2022/01/15 10:39:55;;;;;;;28.53;20.63;;;;;;;0.03;100.00;97398.44;5006624;28;104367;-62
2022/01/15 10:42:24;;;;;;;26.33;19.90;;;;;;;-0.01;100.00;97401.53;5006987;28;101988;-63
2022/01/15 10:44:52;;;;;;;31.47;19.77;;;;;;;-0.17;100.00;97394.47;5008981;28;105215;-62
2022/01/15 10:47:28;;;;;;;27.10;19.13;;;;;;;-0.23;100.00;97385.63;4999743;28;106217;-67
2022/01/15 10:50:01;;;;;;;31.50;20.83;;;;;;;-0.07;100.00;97392.53;5006572;28;101935;-62
2022/01/15 10:52:30;;;;;;;28.37;21.10;;;;;;;0.05;100.00;97383.41;5013193;28;105136;-61
2022/01/15 10:55:05;;;;;;;30.90;21.13;;;;;;;0.10;100.00;97383.75;4995828;28;101833;-63
2022/01/15 10:57:36;;;;;;;33.00;21.63;;;;;;;-0.21;100.00;97381.88;5003084;28;105074;-63
2022/01/15 11:00:11;;;;;;;29.83;20.10;;;;;;;-0.27;100.00;97382.53;5009353;28;106128;-60
2022/01/15 11:02:41;;;;;;;31.07;21.30;;;;;;;-0.25;100.00;97372.72;5026697;28;101861;-65
2022/01/15 11:05:36;;;;;;;29.50;21.20;;;;;;;-0.17;100.00;97367.50;5011157;28;101894;-61
2022/01/15 11:08:06;;;;;;;27.67;19.77;;;;;;;-0.02;100.00;97368.50;4963499;28;105261;-63
2022/01/15 11:10:42;;;;;;;28.33;19.57;;;;;;;0.08;100.00;97366.56;5006505;28;101979;-59
2022/01/15 11:13:11;;;;;;;26.57;18.93;;;;;;;0.09;100.00;97353.34;4997584;28;104029;-60
2022/01/15 11:15:38;;;;;;;31.53;20.87;;;;;;;0.16;100.00;97358.72;5008825;28;101946;-60
2022/01/15 11:18:22;;;;;;;29.43;21.90;;;;;;;-0.02;100.00;97355.44;5006278;28;105108;-60
2022/01/15 11:20:51;;;;;;;30.90;22.70;;;;;;;0.23;100.00;97349.28;5005711;28;105580;-60
2022/01/15 11:23:20;;;;;;;33.40;22.10;;;;;;;0.13;100.00;97344.16;5007229;28;102310;-60
2022/01/15 11:25:47;;;;;;;38.07;23.37;;;;;;;0.08;100.00;97341.25;5009202;28;103497;-60
2022/01/15 11:28:43;;;;;;;32.33;23.17;;;;;;;0.21;100.00;97338.97;5010393;28;102770;-60
2022/01/15 11:31:13;;;;;;;37.33;25.17;;;;;;;0.31;100.00;97338.78;5000292;28;101868;-60
2022/01/15 11:33:47;;;;;;;32.43;23.60;;;;;;;0.49;100.00;97339.44;5009265;28;105629;-60
2022/01/15 11:36:31;;;;;;;38.10;25.77;;;;;;;0.50;100.00;97341.09;5010302;28;105045;-60
2022/01/15 11:39:05;;;;;;;34.23;23.77;;;;;;;0.50;100.00;97339.28;4998539;28;103129;-60
2022/01/15 11:42:07;;;;;;;32.30;23.83;;;;;;;0.65;100.00;97331.56;5005199;28;103971;-60
2022/01/15 11:44:41;;;;;;;32.87;23.40;;;;;;;0.51;100.00;97330.44;4998384;28;101868;-60
2022/01/15 11:47:17;;;;;;;35.47;23.87;;;;;;;0.69;100.00;97331.09;4991545;28;103961;-60